Time;durP1;ratioP1;P1;durP2;ratioP2;P2;SDS_P1;SDS_P2;PMS_P1;PMS_P2;Temp;Humidity;BMP_temperature;BMP_pressure;BME280_temperature;BME280_humidity;BME280_pressure;Samples;Min_cycle;Max_cycle;Signal;HPM_P1;HPM_P2
2020/12/06 00:02:16;;;;;;;;;;;9.30;99.90;;;8.82;96.99;100742.69;5052968;28;19978;-64
2020/12/06 00:04:44;;;;;;;;;;;9.40;99.90;;;8.84;97.67;100740.53;5054165;28;19970;-63
2020/12/06 00:07:11;;;;;;;;;;;9.40;99.90;;;8.82;96.80;100738.09;5053197;28;19979;-64
2020/12/06 00:09:38;;;;;;;;;;;9.40;99.90;;;8.73;97.03;100737.06;5053754;28;19975;-64
2020/12/06 00:12:05;;;;;;;;;;;9.30;99.90;;;8.62;96.75;100730.97;5052404;28;20359;-63
2020/12/06 00:14:32;;;;;;;;;;;9.20;99.90;;;8.53;97.25;100729.13;5053776;28;19928;-63
2020/12/06 00:16:59;;;;;;;;;;;9.10;99.90;;;8.48;97.13;100718.38;5053472;28;19925;-64
2020/12/06 00:19:26;;;;;;;;;;;9.00;99.90;;;8.36;96.53;100720.59;5053537;28;19987;-64
2020/12/06 00:21:54;;;;;;;;;;;8.90;99.90;;;8.21;96.61;100714.16;5052329;28;19929;-64
2020/12/06 00:24:22;;;;;;;;;;;8.80;99.90;;;8.08;96.96;100714.78;5053688;28;19971;-64
2020/12/06 00:26:49;;;;;;;;;;;8.70;99.90;;;7.98;96.52;100709.41;5053354;28;20024;-63
2020/12/06 00:29:16;;;;;;;;;;;8.60;99.90;;;7.94;97.05;100719.09;5053581;28;19924;-64
2020/12/06 00:31:43;;;;;;;;;;;8.50;99.90;;;7.91;96.81;100708.06;5051981;28;19929;-64
2020/12/06 00:34:10;;;;;;;;;;;8.50;99.90;;;8.01;97.58;100705.34;5053250;28;19973;-64
2020/12/06 00:36:37;;;;;;;;;;;8.50;99.90;;;8.10;96.63;100699.13;5053194;28;19932;-64
2020/12/06 00:39:07;;;;;;;;;;;8.60;99.90;;;8.10;95.40;100691.06;5052411;28;21306;-63
2020/12/06 00:41:34;;;;;;;;;;;8.60;99.90;;;8.08;95.01;100695.09;5052035;28;19971;-64
2020/12/06 00:44:01;;;;;;;;;;;8.60;99.90;;;8.00;94.83;100696.47;5053009;28;19968;-64
2020/12/06 00:46:28;;;;;;;;;;;8.50;99.90;;;7.93;93.60;100701.38;5053156;28;20443;-64
2020/12/06 00:48:55;;;;;;;;;;;8.40;99.90;;;7.87;94.12;100707.84;5052999;28;19978;-64
2020/12/06 00:51:22;;;;;;;;;;;8.40;99.90;;;7.87;94.57;100704.34;5051794;28;20015;-64
2020/12/06 00:53:49;;;;;;;;;;;8.30;99.90;;;7.80;94.61;100707.31;5052048;28;19924;-63
2020/12/06 00:56:19;;;;;;;;;;;8.20;99.90;;;7.72;94.74;100713.25;5052965;28;19984;-63
2020/12/06 00:58:46;;;;;;;;;;;8.20;99.90;;;7.60;94.49;100710.03;5052705;28;19924;-63
2020/12/06 01:01:14;;;;;;;;;;;8.10;99.90;;;7.58;95.11;100702.25;5051911;28;19963;-64
2020/12/06 01:03:41;;;;;;;;;;;8.00;99.90;;;7.51;94.78;100707.09;5052563;28;19964;-64
2020/12/06 01:06:08;;;;;;;;;;;7.90;99.90;;;7.45;96.13;100705.50;5052875;28;19978;-63
2020/12/06 01:08:36;;;;;;;;;;;8.00;99.90;;;7.47;96.31;100702.56;5052475;28;19968;-64
2020/12/06 01:11:03;;;;;;;;;;;8.00;99.90;;;7.47;96.72;100705.25;5051608;28;20383;-64
2020/12/06 01:13:31;;;;;;;;;;;8.00;99.90;;;7.54;97.80;100720.00;5052483;28;19964;-64
2020/12/06 01:15:58;;;;;;;;;;;8.10;99.90;;;7.64;98.04;100724.56;5052721;28;19982;-64
2020/12/06 01:18:27;;;;;;;;;;;8.20;99.90;;;7.78;97.59;100716.75;5052354;28;19932;-63
2020/12/06 01:20:54;;;;;;;;;;;8.30;99.90;;;7.86;98.77;100702.72;5051553;28;19963;-63
2020/12/06 01:23:22;;;;;;;;;;;8.40;99.90;;;7.92;99.25;100707.00;5052355;28;20437;-64
2020/12/06 01:25:49;;;;;;;;;;;8.40;99.90;;;8.00;99.64;100692.97;5052576;28;19925;-63
2020/12/06 01:28:16;;;;;;;;;;;8.60;99.90;;;8.06;100.00;100695.38;5052399;28;19972;-64
2020/12/06 01:30:44;;;;;;;;;;;8.60;99.90;;;8.14;100.00;100700.19;5051429;28;20017;-64
2020/12/06 01:33:11;;;;;;;;;;;8.70;99.90;;;8.15;100.00;100693.72;5051990;28;19968;-63
2020/12/06 01:35:38;;;;;;;;;;;8.70;99.90;;;8.12;99.60;100690.75;5052539;28;20369;-63
2020/12/06 01:38:05;;;;;;;;;;;8.70;99.90;;;8.15;99.79;100696.41;5052318;28;20020;-64
2020/12/06 01:40:32;;;;;;;;;;;8.70;99.90;;;8.11;99.16;100699.94;5051313;28;19960;-64
2020/12/06 01:43:00;;;;;;;;;;;8.60;99.90;;;8.02;100.00;100705.09;5052178;28;19925;-63
2020/12/06 01:45:27;;;;;;;;;;;8.60;99.90;;;7.93;100.00;100720.22;5052324;28;20348;-63
2020/12/06 01:47:55;;;;;;;;;;;8.50;99.90;;;7.89;100.00;100700.28;5052197;28;19948;-64
2020/12/06 01:50:23;;;;;;;;;;;8.50;99.90;;;7.92;100.00;100709.69;5051488;28;19936;-63
2020/12/06 01:52:50;;;;;;;;;;;8.50;99.90;;;7.93;100.00;100706.75;5051876;28;19924;-63
2020/12/06 01:55:17;;;;;;;;;;;8.60;99.90;;;7.99;100.00;100710.22;5052220;28;19925;-63
2020/12/06 01:57:45;;;;;;;;;;;8.60;99.90;;;7.96;100.00;100713.47;5051986;28;20279;-64
2020/12/06 02:00:12;;;;;;;;;;;8.60;99.90;;;7.99;100.00;100721.00;5051770;28;19990;-63
2020/12/06 02:02:39;;;;;;;;;;;8.60;99.90;;;8.02;100.00;100725.84;5051768;28;19971;-64
2020/12/06 02:05:07;;;;;;;;;;;8.60;99.90;;;8.03;100.00;100722.84;5053196;28;19928;-64
2020/12/06 02:07:35;;;;;;;;;;;8.70;99.90;;;8.09;100.00;100726.31;5055916;28;19925;-63
2020/12/06 02:10:02;;;;;;;;;;;8.70;99.90;;;8.24;100.00;100712.78;5055404;28;19964;-63
2020/12/06 02:12:29;;;;;;;;;;;8.80;99.90;;;8.24;100.00;100718.97;5055498;28;19978;-63
2020/12/06 02:14:56;;;;;;;;;;;8.80;99.90;;;8.27;100.00;100714.94;5056031;28;19925;-64
2020/12/06 02:17:26;;;;;;;;;;;8.80;99.90;;;8.24;100.00;100718.97;5055761;28;19925;-64
2020/12/06 02:19:56;;;;;;;;;;;8.80;99.90;;;7.98;100.00;100730.13;5055452;28;19929;-63
2020/12/06 02:22:23;;;;;;;;;;;8.70;99.90;;;7.85;100.00;100734.22;5055300;28;19925;-64
2020/12/06 02:24:50;;;;;;;;;;;8.50;99.90;;;7.80;100.00;100736.13;5055621;28;19978;-64
2020/12/06 02:27:17;;;;;;;;;;;8.20;99.90;;;7.73;100.00;100733.72;5055646;28;19929;-64
2020/12/06 02:29:44;;;;;;;;;;;8.40;99.90;;;7.72;100.00;100729.38;5055453;28;19972;-63
2020/12/06 02:32:11;;;;;;;;;;;8.50;99.90;;;7.67;100.00;100738.31;5054769;28;19964;-64
2020/12/06 02:34:38;;;;;;;;;;;8.30;99.90;;;7.77;100.00;100745.56;5055622;28;19971;-63
2020/12/06 02:37:06;;;;;;;;;;;8.30;99.90;;;7.84;100.00;100746.09;5055299;28;20027;-63
2020/12/06 02:39:33;;;;;;;;;;;8.40;99.90;;;7.92;100.00;100739.31;5055355;28;20362;-63
2020/12/06 02:42:00;;;;;;;;;;;8.40;99.90;;;7.98;100.00;100740.91;5054548;28;20015;-64
2020/12/06 02:44:28;;;;;;;;;;;8.40;99.90;;;8.05;100.00;100738.75;5055378;28;19967;-64
2020/12/06 02:46:55;;;;;;;;;;;8.50;99.90;;;8.13;100.00;100732.78;5055221;28;20348;-63
2020/12/06 02:49:22;;;;;;;;;;;8.70;99.90;;;8.19;100.00;100737.88;5055392;28;19964;-63
2020/12/06 02:51:49;;;;;;;;;;;8.70;99.90;;;8.25;100.00;100738.66;5054137;28;19925;-64
2020/12/06 02:54:17;;;;;;;;;;;8.70;99.90;;;8.30;100.00;100744.03;5055446;28;19925;-63
2020/12/06 02:56:44;;;;;;;;;;;8.90;99.90;;;8.36;100.00;100737.53;5054983;28;20024;-63
2020/12/06 02:59:11;;;;;;;;;;;9.00;99.90;;;8.38;100.00;100740.78;5055136;28;19951;-64
2020/12/06 03:01:39;;;;;;;;;;;9.00;99.90;;;8.38;100.00;100738.09;5054011;28;20361;-64
2020/12/06 03:04:06;;;;;;;;;;;9.00;99.90;;;8.38;100.00;100743.47;5055206;28;19925;-64
2020/12/06 03:06:33;;;;;;;;;;;9.00;99.90;;;8.37;100.00;100739.16;5054848;28;19967;-63
2020/12/06 03:09:00;;;;;;;;;;;9.00;99.90;;;8.33;100.00;100738.09;5054969;28;19925;-64
2020/12/06 03:11:28;;;;;;;;;;;8.90;99.90;;;8.34;100.00;100733.53;5053685;28;20366;-63
2020/12/06 03:13:55;;;;;;;;;;;9.00;99.90;;;8.37;100.00;100739.16;5054911;28;19968;-63
2020/12/06 03:16:24;;;;;;;;;;;9.00;99.90;;;8.38;100.00;100735.41;5054102;28;19979;-63
2020/12/06 03:18:51;;;;;;;;;;;9.00;99.90;;;8.45;100.00;100729.72;5054721;28;19924;-63
2020/12/06 03:21:18;;;;;;;;;;;9.00;99.90;;;8.49;100.00;100736.13;5053562;28;19986;-64
2020/12/06 03:23:45;;;;;;;;;;;9.10;99.90;;;8.53;100.00;100748.00;5054705;28;19971;-64
2020/12/06 03:26:12;;;;;;;;;;;9.10;99.90;;;8.52;100.00;100749.88;5054605;28;19925;-64
2020/12/06 03:28:40;;;;;;;;;;;9.10;99.90;;;8.56;100.00;100747.44;5054494;28;19955;-64
2020/12/06 03:31:08;;;;;;;;;;;9.20;99.90;;;8.56;100.00;100748.25;5053456;28;19925;-64
2020/12/06 03:33:35;;;;;;;;;;;9.20;99.90;;;8.64;100.00;100744.13;5054289;28;19972;-64
2020/12/06 03:36:02;;;;;;;;;;;9.20;99.90;;;8.66;100.00;100740.06;5054454;28;20443;-64
2020/12/06 03:38:29;;;;;;;;;;;9.30;99.90;;;8.69;100.00;100734.13;5054278;28;19924;-64
2020/12/06 03:40:56;;;;;;;;;;;9.30;99.90;;;8.68;100.00;100731.72;5053367;28;19975;-64
2020/12/06 03:43:23;;;;;;;;;;;9.30;99.90;;;8.71;100.00;100725.78;5054526;28;19974;-63
2020/12/06 03:45:51;;;;;;;;;;;9.30;99.90;;;8.73;100.00;100727.09;5054201;28;20372;-65
2020/12/06 03:48:19;;;;;;;;;;;9.30;99.90;;;8.72;100.00;100728.19;5054144;28;19960;-63
2020/12/06 03:50:46;;;;;;;;;;;9.30;99.90;;;8.74;100.00;100722.53;5053307;28;19956;-64
2020/12/06 03:53:13;;;;;;;;;;;9.30;99.90;;;8.77;100.00;100713.88;5053908;28;19924;-64
2020/12/06 03:55:40;;;;;;;;;;;9.30;99.90;;;8.72;100.00;100708.53;5053984;28;19928;-65
2020/12/06 03:58:08;;;;;;;;;;;9.30;99.90;;;8.66;100.00;100702.34;5053866;28;20378;-64
2020/12/06 04:00:35;;;;;;;;;;;9.30;99.90;;;8.57;100.00;100700.53;5053303;28;19925;-63
2020/12/06 04:03:03;;;;;;;;;;;9.20;99.90;;;8.43;100.00;100699.53;5053829;28;19929;-64
2020/12/06 04:05:30;;;;;;;;;;;9.00;99.90;;;8.42;100.00;100693.31;5053863;28;19982;-63
2020/12/06 04:07:57;;;;;;;;;;;9.00;99.90;;;8.38;100.00;100697.69;5053634;28;19963;-65
2020/12/06 04:10:24;;;;;;;;;;;8.90;99.90;;;8.31;100.00;100699.06;5053129;28;19929;-63
2020/12/06 04:12:51;;;;;;;;;;;8.80;99.90;;;8.14;100.00;100697.50;5053335;28;19979;-64
2020/12/06 04:15:18;;;;;;;;;;;8.70;99.90;;;8.02;100.00;100696.22;5053794;28;19924;-63
2020/12/06 04:17:45;;;;;;;;;;;8.50;99.90;;;7.86;100.00;100700.03;5053321;28;19972;-64
2020/12/06 04:20:13;;;;;;;;;;;8.40;99.90;;;7.70;100.00;100707.34;5053057;28;19978;-64
2020/12/06 04:22:41;;;;;;;;;;;8.20;99.90;;;7.45;100.00;100710.88;5053051;28;19979;-65
2020/12/06 04:25:08;;;;;;;;;;;8.00;99.90;;;7.24;100.00;100720.06;5053707;28;20009;-64
2020/12/06 04:27:35;;;;;;;;;;;7.80;99.90;;;7.08;100.00;100723.84;5052952;28;19968;-64
2020/12/06 04:30:03;;;;;;;;;;;7.70;99.90;;;7.01;100.00;100725.97;5051817;28;19990;-63
2020/12/06 04:32:30;;;;;;;;;;;7.60;99.90;;;7.01;100.00;100725.97;5052746;28;19936;-63
2020/12/06 04:34:57;;;;;;;;;;;7.60;99.90;;;6.95;100.00;100718.97;5053481;28;19925;-63
2020/12/06 04:37:25;;;;;;;;;;;7.60;99.90;;;6.94;100.00;100704.72;5052954;28;19972;-63
2020/12/06 04:39:52;;;;;;;;;;;7.50;99.90;;;6.98;100.00;100700.44;5052738;28;20349;-64
2020/12/06 04:42:20;;;;;;;;;;;7.50;99.90;;;7.04;100.00;100703.94;5052660;28;19979;-63
2020/12/06 04:44:47;;;;;;;;;;;7.50;99.90;;;7.11;100.00;100693.72;5053147;28;19925;-63
2020/12/06 04:47:19;;;;;;;;;;;7.60;99.90;;;7.19;100.00;100705.81;5052908;28;19932;-63
2020/12/06 04:49:46;;;;;;;;;;;7.70;99.90;;;7.23;100.00;100702.31;5052696;28;19931;-65
2020/12/06 04:52:18;;;;;;;;;;;7.70;99.90;;;7.35;100.00;100699.34;5052170;28;19928;-64
2020/12/06 04:54:52;;;;;;;;;;;7.80;99.90;;;7.43;100.00;100704.97;5053364;28;19925;-64
2020/12/06 04:57:20;;;;;;;;;;;7.90;99.90;;;7.54;100.00;100703.06;5052549;28;20036;-63
2020/12/06 04:59:47;;;;;;;;;;;8.10;99.90;;;7.63;100.00;100707.63;5052591;28;19925;-63
2020/12/06 05:02:20;;;;;;;;;;;8.20;99.90;;;7.75;100.00;100707.34;5052021;28;19925;-63
2020/12/06 05:04:48;;;;;;;;;;;8.30;99.90;;;7.88;100.00;100708.63;5052961;28;20500;-64
2020/12/06 05:07:17;;;;;;;;;;;8.40;99.90;;;7.93;100.00;100709.44;5052367;28;19968;-64
2020/12/06 05:09:48;;;;;;;;;;;8.50;99.90;;;7.94;100.00;100721.00;5052527;28;19960;-64
2020/12/06 05:12:16;;;;;;;;;;;8.50;99.90;;;7.89;100.00;100729.09;5051783;28;19931;-64
2020/12/06 05:14:43;;;;;;;;;;;8.50;99.90;;;7.79;100.00;100718.34;5052880;28;19983;-64
2020/12/06 05:17:11;;;;;;;;;;;8.40;99.90;;;7.77;100.00;100723.22;5052310;28;20022;-64
2020/12/06 05:19:38;;;;;;;;;;;8.40;99.90;;;7.77;100.00;100720.50;5052383;28;19931;-63
2020/12/06 05:22:06;;;;;;;;;;;8.30;99.90;;;7.70;100.00;100716.22;5051641;28;19933;-63
2020/12/06 05:24:34;;;;;;;;;;;8.30;99.90;;;7.66;100.00;100717.84;5052604;28;20382;-64
2020/12/06 05:27:02;;;;;;;;;;;8.20;99.90;;;7.61;100.00;100720.56;5052331;28;19925;-63
2020/12/06 05:29:29;;;;;;;;;;;8.10;99.90;;;7.58;100.00;100720.28;5052415;28;19956;-64
2020/12/06 05:31:57;;;;;;;;;;;8.10;99.90;;;7.52;100.00;100721.38;5051326;28;19994;-64
2020/12/06 05:34:24;;;;;;;;;;;8.10;99.90;;;7.46;100.00;100728.66;5052530;28;19991;-63
2020/12/06 05:36:51;;;;;;;;;;;8.00;99.90;;;7.46;100.00;100727.84;5052318;28;20263;-64
2020/12/06 05:39:22;;;;;;;;;;;8.00;99.90;;;7.45;100.00;100737.78;5052537;28;20351;-64
2020/12/06 05:41:49;;;;;;;;;;;7.90;99.90;;;7.41;100.00;100727.84;5057931;28;19928;-63
2020/12/06 05:44:21;;;;;;;;;;;7.90;99.90;;;7.43;100.00;100723.81;5059086;28;20365;-64
2020/12/06 05:46:48;;;;;;;;;;;7.90;99.90;;;7.42;100.00;100732.94;5058912;28;19967;-65
2020/12/06 05:49:19;;;;;;;;;;;7.90;99.90;;;7.38;100.00;100729.19;5059005;28;19972;-64
2020/12/06 05:51:53;;;;;;;;;;;7.90;99.90;;;7.36;100.00;100727.84;5058065;28;20322;-63
2020/12/06 05:54:24;;;;;;;;;;;7.90;99.90;;;7.43;100.00;100733.75;5058955;28;19971;-63
2020/12/06 05:56:54;;;;;;;;;;;8.00;99.90;;;7.51;100.00;100723.25;5058880;28;19959;-64
2020/12/06 05:59:23;;;;;;;;;;;8.10;99.90;;;7.67;100.00;100724.84;5058736;28;19925;-63
2020/12/06 06:01:52;;;;;;;;;;;8.30;99.90;;;7.77;100.00;100725.91;5057716;28;19982;-63
2020/12/06 06:04:21;;;;;;;;;;;8.40;99.90;;;7.84;100.00;100734.50;5058964;28;20330;-64
2020/12/06 06:06:51;;;;;;;;;;;8.40;99.90;;;7.89;100.00;100729.91;5058641;28;19929;-63
2020/12/06 06:09:19;;;;;;;;;;;8.50;99.90;;;7.98;100.00;100728.25;5058710;28;19925;-64
2020/12/06 06:11:56;;;;;;;;;;;8.50;99.90;;;8.07;100.00;100736.56;5057646;28;19951;-64
2020/12/06 06:14:25;;;;;;;;;;;8.60;99.90;;;8.12;100.00;100742.75;5058779;28;19925;-63
2020/12/06 06:16:52;;;;;;;;;;;8.70;99.90;;;8.17;100.00;100742.75;5058640;28;20299;-63
2020/12/06 06:19:21;;;;;;;;;;;8.70;99.90;;;8.22;100.00;100755.38;5058724;28;19968;-64
2020/12/06 06:21:49;;;;;;;;;;;8.80;99.90;;;8.27;100.00;100747.25;5057760;28;19929;-65
2020/12/06 06:24:19;;;;;;;;;;;8.80;99.90;;;8.32;100.00;100754.56;5058883;28;19968;-64
2020/12/06 06:26:48;;;;;;;;;;;8.90;99.90;;;8.34;100.00;100753.19;5058567;28;19960;-64
2020/12/06 06:29:17;;;;;;;;;;;8.90;99.90;;;8.40;100.00;100757.47;5058555;28;20396;-64
2020/12/06 06:31:46;;;;;;;;;;;9.00;99.90;;;8.43;100.00;100751.53;5057462;28;20382;-64
2020/12/06 06:34:13;;;;;;;;;;;9.00;99.90;;;8.47;100.00;100758.00;5058786;28;20323;-64
2020/12/06 06:36:44;;;;;;;;;;;9.00;99.90;;;8.51;100.00;100761.72;5058510;28;19960;-63
2020/12/06 06:39:11;;;;;;;;;;;9.10;99.90;;;8.52;100.00;100757.94;5058392;28;19979;-64
2020/12/06 06:41:38;;;;;;;;;;;9.10;99.90;;;8.52;100.00;100763.34;5057372;28;19925;-63
2020/12/06 06:44:05;;;;;;;;;;;9.10;99.90;;;8.55;100.00;100759.28;5058542;28;19960;-63
2020/12/06 06:46:33;;;;;;;;;;;9.10;99.90;;;8.54;100.00;100758.47;5058646;28;19929;-63
2020/12/06 06:49:08;;;;;;;;;;;9.10;99.90;;;8.54;100.00;100758.47;5058254;28;19968;-63
2020/12/06 06:51:35;;;;;;;;;;;9.10;99.90;;;8.53;100.00;100756.06;5055150;28;19956;-65
2020/12/06 06:54:05;;;;;;;;;;;9.10;99.90;;;8.53;100.00;100764.97;5055084;28;20398;-64
2020/12/06 06:56:48;;;;;;;;;;;9.10;99.90;;;8.54;100.00;100766.56;5055227;28;19925;-64
2020/12/06 06:59:15;;;;;;;;;;;9.10;99.90;;;8.58;100.00;100764.13;5055137;28;19963;-64
2020/12/06 07:01:48;;;;;;;;;;;9.10;99.90;;;8.57;100.00;100766.00;5054119;28;19971;-63
2020/12/06 07:04:20;;;;;;;;;;;9.20;99.90;;;8.58;100.00;100774.91;5055242;28;20362;-64
2020/12/06 07:06:48;;;;;;;;;;;9.20;99.90;;;8.59;100.00;100773.81;5055000;28;20290;-63
2020/12/06 07:09:16;;;;;;;;;;;9.20;99.90;;;8.60;100.00;100770.84;5055017;28;19986;-63
2020/12/06 07:11:44;;;;;;;;;;;9.20;99.90;;;8.65;100.00;100768.13;5053531;28;19998;-64
2020/12/06 07:14:11;;;;;;;;;;;9.20;99.90;;;8.68;100.00;100772.97;5054835;28;19924;-63
2020/12/06 07:16:39;;;;;;;;;;;9.30;99.90;;;8.71;100.00;100769.72;5054774;28;19924;-63
2020/12/06 07:19:06;;;;;;;;;;;9.30;99.90;;;8.74;100.00;100779.13;5054663;28;19971;-63
2020/12/06 07:21:35;;;;;;;;;;;9.30;99.90;;;8.74;100.00;100787.22;5053648;28;20401;-63
2020/12/06 07:24:03;;;;;;;;;;;9.30;99.90;;;8.75;100.00;100786.16;5054836;28;19964;-63
2020/12/06 07:26:31;;;;;;;;;;;9.30;99.90;;;8.72;100.00;100782.09;5054643;28;19928;-63
2020/12/06 07:28:59;;;;;;;;;;;9.30;99.90;;;8.64;100.00;100771.91;5054511;28;20439;-63
2020/12/06 07:31:27;;;;;;;;;;;9.20;99.90;;;8.57;100.00;100771.41;5053618;28;19960;-63
2020/12/06 07:33:55;;;;;;;;;;;9.10;99.90;;;8.49;100.00;100776.56;5054470;28;19964;-64
2020/12/06 07:36:22;;;;;;;;;;;9.00;99.90;;;8.41;100.00;100771.75;5054626;28;19929;-64
2020/12/06 07:38:50;;;;;;;;;;;8.90;99.90;;;8.41;100.00;100764.50;5054539;28;19925;-63
2020/12/06 07:41:17;;;;;;;;;;;8.90;99.90;;;8.45;100.00;100770.91;5053140;28;19929;-64
2020/12/06 07:43:45;;;;;;;;;;;9.00;99.90;;;8.51;100.00;100767.13;5054458;28;20348;-64
2020/12/06 07:46:19;;;;;;;;;;;9.00;99.90;;;8.58;100.00;100783.81;5054512;28;20074;-64
2020/12/06 07:48:46;;;;;;;;;;;9.10;99.90;;;8.66;100.00;100785.13;5054294;28;20259;-64
2020/12/06 07:51:13;;;;;;;;;;;9.20;99.90;;;8.72;100.00;100811.75;5052959;28;20000;-64
2020/12/06 07:53:47;;;;;;;;;;;9.20;99.90;;;8.77;100.00;100819.03;5054051;28;19929;-64
2020/12/06 07:56:19;;;;;;;;;;;9.30;99.90;;;8.77;100.00;100813.63;5054228;28;19932;-64
2020/12/06 07:58:54;;;;;;;;;;;9.30;99.90;;;8.75;100.00;100815.81;5053999;28;19925;-64
2020/12/06 08:01:22;;;;;;;;;;;9.30;99.90;;;8.79;100.00;100823.03;5052643;28;19973;-63
2020/12/06 08:03:50;;;;;;;;;;;9.40;99.90;;;8.79;100.00;100822.22;5053577;28;19994;-64
2020/12/06 08:06:17;;;;;;;;;;;9.40;99.90;;;8.81;100.00;100822.78;5053919;28;20285;-63
2020/12/06 08:08:48;;;;;;;;;;;9.40;99.90;;;8.81;100.00;100830.88;5053854;28;19924;-64
2020/12/06 08:11:17;;;;;;;;;;;9.40;99.90;;;8.86;100.00;100819.25;5052659;28;19979;-64
2020/12/06 08:13:50;;;;;;;;;;;9.40;99.90;;;8.92;100.00;100821.63;5053598;28;19968;-64
2020/12/06 08:16:18;;;;;;;;;;;9.40;99.90;;;8.97;100.00;100826.19;5053820;28;20469;-63
2020/12/06 08:18:46;;;;;;;;;;;9.50;99.90;;;8.99;100.00;100822.16;5053620;28;20381;-63
2020/12/06 08:21:13;;;;;;;;;;;9.50;99.90;;;9.00;100.00;100821.03;5052587;28;19924;-64
2020/12/06 08:23:40;;;;;;;;;;;9.50;99.90;;;9.15;100.00;100830.94;5053459;28;19952;-64
2020/12/06 08:26:07;;;;;;;;;;;9.70;99.90;;;9.18;100.00;100830.38;5053581;28;20267;-64
2020/12/06 08:28:35;;;;;;;;;;;9.70;99.90;;;9.23;100.00;100833.03;5053286;28;19925;-65
2020/12/06 08:31:19;;;;;;;;;;;9.80;99.90;;;9.40;100.00;100840.75;5052263;28;20017;-63
2020/12/06 08:33:46;;;;;;;;;;;9.90;99.90;;;9.72;100.00;100841.84;5053137;28;19928;-64
2020/12/06 08:36:23;;;;;;;;;;;10.20;99.90;;;9.92;100.00;100837.34;5053496;28;19967;-64
2020/12/06 08:38:51;;;;;;;;;;;10.40;99.90;;;9.89;100.00;100839.53;5053239;28;19925;-64
2020/12/06 08:41:24;;;;;;;;;;;10.40;99.90;;;9.86;100.00;100832.00;5052012;28;19994;-64
2020/12/06 08:43:55;;;;;;;;;;;10.50;99.90;;;9.94;100.00;100827.06;5053173;28;19964;-63
2020/12/06 08:46:24;;;;;;;;;;;10.50;99.90;;;10.02;100.00;100835.34;5053209;28;20380;-64
2020/12/06 08:48:52;;;;;;;;;;;10.50;99.90;;;10.12;100.00;100831.75;5053012;28;19933;-63
2020/12/06 08:51:30;;;;;;;;;;;10.70;99.90;;;10.17;100.00;100837.13;5051918;28;20058;-64
2020/12/06 08:53:58;;;;;;;;;;;10.70;99.90;;;10.30;100.00;100839.16;5052967;28;20425;-65
2020/12/06 08:56:30;;;;;;;;;;;10.80;99.90;;;10.35;100.00;100842.59;5053038;28;19929;-65
2020/12/06 08:59:01;;;;;;;;;;;10.90;99.90;;;10.29;100.00;100838.34;5053072;28;19928;-65
2020/12/06 09:01:28;;;;;;;;;;;10.80;99.90;;;10.24;100.00;100845.69;5051967;28;19947;-65
2020/12/06 09:03:56;;;;;;;;;;;10.70;99.90;;;10.17;100.00;100850.63;5052863;28;19978;-65
2020/12/06 09:06:23;;;;;;;;;;;10.70;99.90;;;10.13;100.00;100857.66;5052835;28;19971;-63
2020/12/06 09:08:50;;;;;;;;;;;10.60;99.90;;;10.30;100.00;100855.38;5052636;28;20378;-63
2020/12/06 09:11:18;;;;;;;;;;;10.70;99.90;;;10.70;100.00;100863.00;5052061;28;19978;-63
2020/12/06 09:13:45;;;;;;;;;;;11.00;99.90;;;11.15;100.00;100868.91;5052461;28;19947;-63
2020/12/06 09:16:14;;;;;;;;;;;11.40;99.90;;;11.61;99.80;100869.03;5052073;28;19979;-63
2020/12/06 09:18:42;;;;;;;;;;;11.80;99.90;;;11.94;98.84;100873.41;5052858;28;19933;-64
2020/12/06 09:21:09;;;;;;;;;;;12.10;99.90;;;11.83;96.47;100880.88;5051872;28;19956;-64
2020/12/06 09:23:37;;;;;;;;;;;12.20;99.90;;;11.67;97.27;100881.41;5052344;28;19952;-64
2020/12/06 09:26:05;;;;;;;;;;;12.00;99.90;;;11.57;99.05;100882.38;5052734;28;19932;-64
2020/12/06 09:28:32;;;;;;;;;;;12.00;99.90;;;11.39;99.19;100886.69;5052346;28;19925;-63
2020/12/06 09:31:00;;;;;;;;;;;12.00;99.90;;;11.23;99.53;100890.72;5051702;28;20018;-64
2020/12/06 09:33:28;;;;;;;;;;;11.80;99.90;;;11.18;100.00;100879.97;5052008;28;20373;-65
2020/12/06 09:35:55;;;;;;;;;;;11.80;99.90;;;11.15;100.00;100883.25;5052459;28;19925;-64
2020/12/06 09:38:22;;;;;;;;;;;11.70;99.90;;;11.16;100.00;100892.97;5052352;28;19929;-64
2020/12/06 09:40:49;;;;;;;;;;;11.70;99.90;;;11.32;100.00;100888.16;5052002;28;19928;-64
2020/12/06 09:43:17;;;;;;;;;;;11.80;99.90;;;11.48;100.00;100890.34;5051663;28;19925;-64
2020/12/06 09:45:44;;;;;;;;;;;12.00;99.90;;;11.60;99.55;100897.22;5052322;28;20363;-64
2020/12/06 09:48:11;;;;;;;;;;;12.10;99.90;;;11.65;100.00;100899.84;5052054;28;19936;-65
2020/12/06 09:50:39;;;;;;;;;;;12.10;99.90;;;11.59;100.00;100899.13;5052033;28;19952;-64
2020/12/06 09:53:06;;;;;;;;;;;12.10;99.90;;;11.62;100.00;100898.53;5051529;28;19932;-64
2020/12/06 09:55:33;;;;;;;;;;;12.20;99.90;;;11.69;99.82;100898.97;5052435;28;19987;-64
2020/12/06 09:58:01;;;;;;;;;;;12.20;99.90;;;11.70;97.15;100894.38;5051927;28;19929;-64
2020/12/06 10:00:28;;;;;;;;;;;12.20;99.90;;;11.96;96.90;100901.81;5051944;28;20279;-64
2020/12/06 10:02:55;;;;;;;;;;;12.30;99.90;;;12.38;98.26;100897.25;5051407;28;19955;-64
2020/12/06 10:05:22;;;;;;;;;;;12.70;99.90;;;12.79;97.02;100900.81;5052340;28;19932;-65
2020/12/06 10:07:50;;;;;;;;;;;13.00;99.90;;;13.08;96.01;100912.16;5051938;28;19978;-65
2020/12/06 10:10:17;;;;;;;;;;;13.30;99.90;;;13.39;95.62;100911.50;5051615;28;19929;-64
2020/12/06 10:12:44;;;;;;;;;;;13.60;99.90;;;13.46;92.38;100906.47;5051323;28;19978;-64
2020/12/06 10:15:11;;;;;;;;;;;13.70;99.90;;;13.23;91.91;100915.66;5052345;28;20355;-64
2020/12/06 10:17:39;;;;;;;;;;;13.60;99.90;;;12.97;93.82;100913.47;5051734;28;19925;-65
2020/12/06 10:20:06;;;;;;;;;;;13.40;99.90;;;12.86;95.27;100911.22;5051481;28;19929;-64
2020/12/06 10:22:34;;;;;;;;;;;13.20;99.90;;;12.72;95.98;100910.44;5051246;28;19951;-64
2020/12/06 10:25:02;;;;;;;;;;;13.20;99.90;;;12.50;94.82;100908.41;5052206;28;19925;-64
2020/12/06 10:27:29;;;;;;;;;;;13.00;99.90;;;12.33;94.60;100910.91;5055050;28;19979;-65
2020/12/06 10:29:56;;;;;;;;;;;12.90;99.90;;;12.26;95.54;100913.22;5055474;28;19924;-64
2020/12/06 10:32:23;;;;;;;;;;;12.70;99.90;;;12.19;95.37;100915.53;5054427;28;20367;-64
2020/12/06 10:34:50;;;;;;;;;;;12.70;99.90;;;12.15;95.23;100911.78;5055665;28;20022;-64
2020/12/06 10:37:17;;;;;;;;;;;12.60;99.90;;;12.22;94.56;100915.72;5055424;28;19986;-64
2020/12/06 10:39:45;;;;;;;;;;;12.70;99.90;;;12.37;94.55;100911.94;5055567;28;19986;-64
2020/12/06 10:42:13;;;;;;;;;;;12.90;99.90;;;12.71;92.77;100900.69;5054514;28;20342;-65
2020/12/06 10:44:40;;;;;;;;;;;13.10;99.90;;;12.91;91.26;100911.16;5055468;28;19987;-64
2020/12/06 10:47:07;;;;;;;;;;;13.30;99.90;;;13.00;88.79;100903.91;5055230;28;19929;-64
2020/12/06 10:49:40;;;;;;;;;;;13.30;99.90;;;13.24;90.30;100906.41;5055351;28;19978;-64
2020/12/06 10:52:08;;;;;;;;;;;13.40;99.90;;;13.53;89.24;100904.09;5054433;28;19929;-64
2020/12/06 10:54:35;;;;;;;;;;;13.80;99.90;;;13.65;88.17;100902.44;5055152;28;19925;-64
2020/12/06 10:57:02;;;;;;;;;;;13.90;99.90;;;13.61;86.05;100885.19;5055068;28;19928;-64
2020/12/06 10:59:31;;;;;;;;;;;13.70;99.90;;;13.63;87.28;100899.25;5055281;28;19971;-64
2020/12/06 11:01:58;;;;;;;;;;;13.70;99.90;;;13.67;82.55;100896.72;5054331;28;19928;-64
2020/12/06 11:04:25;;;;;;;;;;;14.00;99.90;;;13.52;83.19;100902.50;5054779;28;19925;-63
2020/12/06 11:06:52;;;;;;;;;;;13.80;99.90;;;13.79;86.50;100907.84;5054885;28;20432;-64
2020/12/06 11:09:19;;;;;;;;;;;;;;;13.93;84.53;100911.28;5055033;28;19971;-63
2020/12/06 11:11:50;;;;;;;;;;;14.20;99.90;;;14.15;84.67;100905.84;5053950;28;19972;-66
2020/12/06 11:14:17;;;;;;;;;;;14.30;99.90;;;14.21;84.06;100890.19;5054783;28;20050;-63
2020/12/06 11:16:45;;;;;;;;;;;14.40;99.90;;;14.39;84.33;100893.81;5054743;28;19980;-63
2020/12/06 11:19:12;;;;;;;;;;;14.60;99.90;;;14.51;84.03;100900.28;5054829;28;19951;-63
2020/12/06 11:21:39;;;;;;;;;;;14.80;99.90;;;14.31;81.80;100889.94;5053897;28;19971;-63